createdAt,value
2022-10-02T00:06:05.355Z,94578.34
2022-10-02T00:14:35.847Z,94559.11
2022-10-02T00:23:40.634Z,94550.86
2022-10-02T00:32:30.626Z,94551.03
2022-10-02T00:41:15.386Z,94521.18
2022-10-02T00:50:16.043Z,94504.84
2022-10-02T00:59:04.754Z,94520.21
2022-10-02T01:07:28.193Z,94511.88
2022-10-02T01:15:54.880Z,94497.05
2022-10-02T01:24:54.673Z,94505.02
2022-10-02T01:33:18.543Z,94501.67
2022-10-02T01:41:44.929Z,94493.88
2022-10-02T01:50:30.669Z,94479.19
2022-10-02T01:59:30.849Z,94475.38
2022-10-02T02:08:26.840Z,94486.52
2022-10-02T02:17:01.613Z,94516.44
2022-10-02T02:25:32.306Z,94533.13
2022-10-02T02:34:00.158Z,94515.77
2022-10-02T02:42:27.616Z,94520.36
2022-10-02T02:50:56.670Z,94523.73
2022-10-02T02:59:22.554Z,94532.49
2022-10-02T03:07:56.590Z,94552.23
2022-10-02T03:16:28.643Z,94550.33
2022-10-02T03:25:11.432Z,94519.55
2022-10-02T03:33:37.687Z,94534.20
2022-10-02T03:42:01.489Z,94568.55
2022-10-02T03:50:25.080Z,94582.13
2022-10-02T03:58:52.995Z,94548.89
2022-10-02T04:07:25.003Z,94536.85
2022-10-02T04:16:07.029Z,94544.53
2022-10-02T04:24:38.709Z,94546.75
2022-10-02T04:33:14.999Z,94526.44
2022-10-02T04:42:15.420Z,94484.81
2022-10-02T04:50:43.939Z,94495.92
2022-10-02T04:59:15.811Z,94521.86
2022-10-02T05:08:05.950Z,94556.10
2022-10-02T05:16:31.619Z,94578.98
2022-10-02T05:25:21.567Z,94595.82
2022-10-02T05:34:05.756Z,94591.96
2022-10-02T05:42:42.924Z,94598.30
2022-10-02T05:51:27.080Z,94616.14
2022-10-02T06:00:21.432Z,94644.20
2022-10-02T06:08:54.112Z,94669.24
2022-10-02T06:17:29.215Z,94691.52
2022-10-02T06:25:58.999Z,94727.40
2022-10-02T06:34:22.779Z,94758.86
2022-10-02T06:43:10.918Z,94782.55
2022-10-02T06:51:42.568Z,94818.94
2022-10-02T07:00:15.947Z,94869.94
2022-10-02T07:09:01.519Z,94887.00
2022-10-02T07:18:05.513Z,94862.53
2022-10-02T07:26:37.799Z,94894.90
2022-10-02T07:35:35.377Z,94908.65
2022-10-02T07:44:17.622Z,94908.08
2022-10-02T07:53:25.298Z,94938.53
2022-10-02T08:01:51.116Z,94999.11
2022-10-02T08:10:16.497Z,95037.56
2022-10-02T08:18:48.496Z,95076.91
2022-10-02T08:27:22.511Z,95178.04
2022-10-02T08:35:59.783Z,95284.64
2022-10-02T08:44:36.143Z,95409.92
2022-10-02T08:53:31.699Z,95499.69
2022-10-02T09:02:03.915Z,95479.30
2022-10-02T09:10:48.395Z,95438.36
2022-10-02T09:19:32.753Z,95393.14
2022-10-02T09:28:04.936Z,95353.55
2022-10-02T09:36:40.157Z,95351.98
2022-10-02T09:45:02.855Z,95371.29
2022-10-02T09:54:10.406Z,95468.59
2022-10-02T10:03:02.343Z,95653.83
2022-10-02T10:11:47.771Z,95695.13
2022-10-02T10:20:24.284Z,95845.54
2022-10-02T10:28:50.987Z,96109.80
2022-10-02T10:37:45.101Z,96249.83
2022-10-02T10:46:11.693Z,96292.92
2022-10-02T10:55:02.688Z,96291.80
2022-10-02T11:03:49.019Z,96248.33
2022-10-02T11:12:17.909Z,96395.17
2022-10-02T11:20:59.608Z,96444.34
2022-10-02T11:30:00.419Z,96112.63
2022-10-02T11:38:32.811Z,95812.09
2022-10-02T11:47:02.048Z,95743.40
2022-10-02T11:55:54.937Z,95751.30
2022-10-02T12:05:04.328Z,95787.85
2022-10-02T12:14:00.295Z,95754.50
2022-10-02T12:22:56.348Z,95740.64
2022-10-02T12:31:37.676Z,95799.36
2022-10-02T12:40:25.220Z,95887.85
2022-10-02T12:49:31.687Z,95743.17
2022-10-02T12:58:11.466Z,95540.55
2022-10-02T13:07:02.182Z,95440.40
2022-10-02T13:15:38.687Z,95358.77
2022-10-02T13:24:19.907Z,95352.77
2022-10-02T13:32:52.680Z,95398.95
2022-10-02T13:41:24.273Z,95413.17
2022-10-02T13:49:47.311Z,95449.78
2022-10-02T13:58:30.335Z,95463.60
2022-10-02T14:07:15.826Z,95464.70
2022-10-02T14:16:07.831Z,95454.39
2022-10-02T14:25:09.838Z,95474.21
2022-10-02T14:33:57.796Z,95486.20
2022-10-02T14:42:54.115Z,95485.39
2022-10-02T14:51:44.071Z,95480.07
2022-10-02T15:00:22.365Z,95453.66
2022-10-02T15:09:03.052Z,95453.86
2022-10-02T15:17:55.306Z,95401.92
2022-10-02T15:26:27.263Z,95296.20
2022-10-02T15:35:06.478Z,95214.84
2022-10-02T15:43:39.350Z,95145.86
2022-10-02T15:52:20.977Z,95106.70
2022-10-02T16:01:02.045Z,95027.81
2022-10-02T16:10:06.487Z,94954.08
2022-10-02T16:19:04.510Z,94949.63
2022-10-02T16:27:52.097Z,94942.45
2022-10-02T16:36:30.838Z,94936.33
2022-10-02T16:45:13.677Z,94877.46
2022-10-02T16:54:01.863Z,94776.15
2022-10-02T17:02:43.814Z,94704.29
2022-10-02T17:11:25.105Z,94681.94
2022-10-02T17:20:24.447Z,94624.30
2022-10-02T17:28:57.333Z,94572.05
2022-10-02T17:37:49.491Z,94548.76
2022-10-02T17:46:44.822Z,94498.05
2022-10-02T17:55:46.156Z,94460.10
2022-10-02T18:04:12.064Z,94395.38
2022-10-02T18:12:57.017Z,94329.31
2022-10-02T18:21:39.303Z,94297.69
2022-10-02T18:30:14.518Z,94288.96
2022-10-02T18:39:00.287Z,94265.70
2022-10-02T18:47:49.357Z,94283.05
2022-10-02T18:56:12.931Z,94310.05
2022-10-02T19:04:58.813Z,94308.32
2022-10-02T19:13:23.664Z,94295.59
2022-10-02T19:21:47.795Z,94298.30
2022-10-02T19:30:33.077Z,94294.64
2022-10-02T19:39:07.672Z,94285.47
2022-10-02T19:47:43.063Z,94260.54
2022-10-02T19:56:13.999Z,94258.73
2022-10-02T20:04:36.949Z,94245.38
2022-10-02T20:13:26.948Z,94224.27
2022-10-02T20:21:55.681Z,94195.03
2022-10-02T20:30:21.011Z,94219.12
2022-10-02T20:38:50.290Z,94275.40
2022-10-02T20:47:41.673Z,94310.87
2022-10-02T20:56:16.737Z,94308.02
2022-10-02T21:04:45.721Z,94263.88
2022-10-02T21:13:24.289Z,94259.60
2022-10-02T21:22:05.871Z,94303.06
2022-10-02T21:31:00.171Z,94358.57
2022-10-02T21:39:59.480Z,94401.45
2022-10-02T21:48:41.510Z,94439.58
2022-10-02T21:57:42.488Z,94464.98
2022-10-02T22:06:21.034Z,94474.33
2022-10-02T22:15:21.952Z,94467.48
2022-10-02T22:24:04.497Z,94450.80
2022-10-02T22:33:05.011Z,94449.91
2022-10-02T22:41:54.942Z,94439.41
2022-10-02T22:50:37.457Z,94434.43
2022-10-02T22:59:15.391Z,94413.00
2022-10-02T23:07:51.819Z,94386.08
2022-10-02T23:16:37.672Z,94372.45
2022-10-02T23:25:19.020Z,94358.90
2022-10-02T23:33:59.934Z,94357.92
2022-10-02T23:42:43.185Z,94353.38
2022-10-02T23:51:23.570Z,94320.45
